Time;durP1;ratioP1;P1;durP2;ratioP2;P2;SDS_P1;SDS_P2;PMS_P1;PMS_P2;Temp;Humidity;BMP_temperature;BMP_pressure;BME280_temperature;BME280_humidity;BME280_pressure;Samples;Min_cycle;Max_cycle;Signal;HPM_P1;HPM_P2
2023/04/08 00:02:00;;;;;;;;;;;5.40;81.50;;;4.22;75.59;96353.31;4996146;28;19921;-84
2023/04/08 00:04:28;;;;;;;;;;;5.40;81.50;;;4.21;75.20;96357.91;5013123;28;19928;-84
2023/04/08 00:06:56;;;;;;;;;;;5.40;81.40;;;4.20;75.51;96358.94;4996035;28;19922;-83
2023/04/08 00:09:24;;;;;;;;;;;5.40;81.40;;;4.21;75.66;96360.59;4995935;28;19922;-83
2023/04/08 00:11:55;;;;;;;;;;;5.40;81.40;;;4.21;75.28;96362.50;5013434;28;20221;-84
2023/04/08 00:14:23;;;;;;;;;;;5.40;81.40;;;4.21;75.70;96357.06;5011882;28;20204;-85
2023/04/08 00:16:51;;;;;;;;;;;5.40;81.40;;;4.20;75.27;96356.22;5008741;28;19928;-84
2023/04/08 00:19:19;;;;;;;;;;;5.40;81.40;;;4.21;75.26;96357.91;4998234;28;20124;-83
2023/04/08 00:21:48;;;;;;;;;;;5.40;81.40;;;4.20;75.15;96355.41;5031030;28;19928;-83
2023/04/08 00:24:16;;;;;;;;;;;5.40;81.40;;;4.21;75.17;96357.91;4998418;28;19921;-83
2023/04/08 00:26:44;;;;;;;;;;;5.40;81.40;;;4.20;75.75;96353.53;4999128;28;19943;-83
2023/04/08 00:29:13;;;;;;;;;;;5.40;81.40;;;4.19;75.68;96357.31;5014858;28;19921;-83
2023/04/08 00:31:41;;;;;;;;;;;5.40;81.40;;;4.20;75.69;96350.00;5014943;28;20212;-84
2023/04/08 00:34:10;;;;;;;;;;;5.40;81.40;;;4.19;75.24;96348.34;5015141;28;19921;-83
2023/04/08 00:36:39;;;;;;;;;;;5.40;81.40;;;4.20;75.34;96356.22;5015217;28;19921;-83
2023/04/08 00:39:07;;;;;;;;;;;5.40;81.40;;;4.20;75.30;96358.94;5015082;28;20213;-84
2023/04/08 00:41:35;;;;;;;;;;;5.40;81.40;;;4.19;75.36;96354.59;5015254;28;19928;-83
2023/04/08 00:44:03;;;;;;;;;;;5.40;81.40;;;4.20;75.18;96355.41;5032128;28;19921;-83
2023/04/08 00:46:34;;;;;;;;;;;5.40;81.40;;;4.20;75.28;96355.41;5032598;28;20213;-83
2023/04/08 00:49:02;;;;;;;;;;;5.40;81.40;;;4.19;75.21;96354.59;5014771;28;19921;-84
2023/04/08 00:51:31;;;;;;;;;;;5.40;81.40;;;4.19;75.28;96348.34;4998690;28;19921;-83
2023/04/08 00:53:59;;;;;;;;;;;5.40;81.40;;;4.16;75.42;96344.22;4998493;28;19921;-83
2023/04/08 00:56:27;;;;;;;;;;;5.40;81.40;;;4.19;75.45;96354.59;5014981;28;19928;-83
2023/04/08 00:58:56;;;;;;;;;;;5.40;81.40;;;4.19;75.08;96354.59;5014764;28;19921;-84
2023/04/08 01:01:28;;;;;;;;;;;5.40;81.40;;;4.19;75.63;96361.88;4998383;28;19927;-83
2023/04/08 01:03:58;;;;;;;;;;;5.40;81.40;;;4.19;75.00;96353.75;5014871;28;20129;-83
2023/04/08 01:06:31;;;;;;;;;;;5.40;81.40;;;4.18;75.36;96347.53;4998397;28;20209;-83
2023/04/08 01:08:59;;;;;;;;;;;5.40;81.40;;;4.16;75.37;96346.94;4998181;28;19921;-83
2023/04/08 01:11:27;;;;;;;;;;;5.40;81.40;;;4.18;75.21;96352.94;5014926;28;19921;-83
2023/04/08 01:13:55;;;;;;;;;;;5.40;81.40;;;4.17;75.49;96355.88;5014537;28;19921;-84
2023/04/08 01:16:23;;;;;;;;;;;5.40;81.40;;;4.18;75.21;96357.53;5014171;28;19921;-83
2023/04/08 01:18:51;;;;;;;;;;;5.40;81.40;;;4.15;75.54;96347.97;5032264;28;19921;-83
2023/04/08 01:21:20;;;;;;;;;;;5.40;81.40;;;4.16;75.26;96355.06;5031777;28;19928;-83
2023/04/08 01:23:55;;;;;;;;;;;5.40;81.40;;;4.17;75.53;96355.88;5014363;28;20144;-83
2023/04/08 01:26:25;;;;;;;;;;;5.40;81.40;;;4.16;75.59;96349.63;5014184;28;19922;-83
2023/04/08 01:28:54;;;;;;;;;;;5.40;81.40;;;4.16;75.25;96352.34;5014266;28;19921;-83
2023/04/08 01:31:22;;;;;;;;;;;5.40;81.40;;;4.15;75.58;96356.91;5014207;28;19928;-83
2023/04/08 01:33:51;;;;;;;;;;;5.40;81.40;;;4.16;75.54;96355.06;5014573;28;19921;-82
2023/04/08 01:36:19;;;;;;;;;;;5.40;81.40;;;4.16;75.49;96346.94;5014109;28;19928;-83
2023/04/08 01:38:47;;;;;;;;;;;5.40;81.40;;;4.15;75.43;96354.22;5031797;28;19921;-83
2023/04/08 01:41:17;;;;;;;;;;;5.40;81.40;;;4.14;75.56;96352.53;5014299;28;19983;-83
2023/04/08 01:43:46;;;;;;;;;;;5.40;81.40;;;4.13;75.22;96350.88;4998087;28;20242;-83
2023/04/08 01:46:14;;;;;;;;;;;5.40;82.20;;;4.15;75.55;96347.97;4997546;28;19921;-83
2023/04/08 01:48:42;;;;;;;;;;;5.40;81.40;;;4.12;75.55;96354.69;4997872;28;19921;-83
2023/04/08 01:51:10;;;;;;;;;;;5.40;81.40;;;4.14;75.39;96352.53;5030559;28;19928;-83
2023/04/08 01:53:38;;;;;;;;;;;5.40;81.40;;;4.14;75.25;96352.53;5014112;28;20230;-83
2023/04/08 01:56:07;;;;;;;;;;;5.40;81.40;;;4.14;75.29;96351.72;5031226;28;19928;-83
2023/04/08 01:58:38;;;;;;;;;;;5.40;81.40;;;4.12;75.60;96343.84;5014245;28;19921;-83
2023/04/08 02:01:10;;;;;;;;;;;5.40;81.40;;;4.14;75.22;96351.72;4997482;28;19921;-83
2023/04/08 02:03:39;;;;;;;;;;;5.40;81.50;;;4.13;75.51;96345.47;5013990;28;19921;-83
2023/04/08 02:06:07;;;;;;;;;;;5.40;81.40;;;4.13;75.56;96347.38;4997123;28;20287;-83
2023/04/08 02:08:35;;;;;;;;;;;5.40;81.40;;;4.13;75.25;96350.06;5014028;28;19921;-84
2023/04/08 02:11:03;;;;;;;;;;;5.40;81.40;;;4.12;75.62;96348.41;5031140;28;19927;-83
2023/04/08 02:13:32;;;;;;;;;;;5.40;81.40;;;4.12;75.23;96345.72;4996935;28;19921;-83
2023/04/08 02:16:03;;;;;;;;;;;5.40;81.40;;;4.13;75.22;96350.06;5012819;28;19921;-83
2023/04/08 02:18:33;;;;;;;;;;;5.40;81.50;;;4.11;75.49;96347.59;5029436;28;19921;-83
2023/04/08 02:21:04;;;;;;;;;;;5.40;81.40;;;4.12;75.67;96343.00;5013359;28;19921;-83
2023/04/08 02:23:32;;;;;;;;;;;5.40;81.40;;;4.11;75.56;96339.47;4997460;28;19927;-83
2023/04/08 02:26:00;;;;;;;;;;;5.30;81.50;;;4.11;75.70;96350.31;5013412;28;19921;-82
2023/04/08 02:28:28;;;;;;;;;;;5.40;81.40;;;4.11;75.55;96338.63;5013421;28;19927;-83
2023/04/08 02:30:56;;;;;;;;;;;5.30;81.50;;;4.12;75.44;96349.25;4997174;28;19921;-83
2023/04/08 02:33:24;;;;;;;;;;;5.30;81.40;;;4.11;75.45;96346.75;5029957;28;19927;-83
2023/04/08 02:35:55;;;;;;;;;;;5.40;81.50;;;4.12;75.62;96351.97;5013618;28;19921;-83
2023/04/08 02:38:28;;;;;;;;;;;5.40;81.40;;;4.11;75.20;96352.19;5013592;28;20232;-83
2023/04/08 02:40:56;;;;;;;;;;;5.30;81.40;;;4.11;75.63;96341.34;4997121;28;19922;-82
2023/04/08 02:43:30;;;;;;;;;;;5.30;81.50;;;4.12;75.18;96348.41;5031077;28;19928;-83
2023/04/08 02:45:58;;;;;;;;;;;5.30;81.50;;;4.12;75.36;96343.00;5013553;28;19921;-83
2023/04/08 02:48:26;;;;;;;;;;;5.30;81.50;;;4.11;75.28;96344.06;5013215;28;19950;-83
2023/04/08 02:50:56;;;;;;;;;;;5.30;81.40;;;4.11;75.52;96346.75;5013388;28;19928;-83
2023/04/08 02:53:24;;;;;;;;;;;5.30;81.40;;;4.10;75.45;96345.94;4997183;28;19921;-83
2023/04/08 02:55:52;;;;;;;;;;;5.30;81.50;;;4.11;75.59;96353.03;5013208;28;19921;-83
2023/04/08 02:58:20;;;;;;;;;;;5.30;81.50;;;4.11;75.61;96352.19;5013135;28;19921;-83
2023/04/08 03:00:48;;;;;;;;;;;5.30;81.50;;;4.10;75.54;96350.53;5013369;28;19921;-83
2023/04/08 03:03:16;;;;;;;;;;;5.30;81.40;;;4.11;75.26;96352.19;4996717;28;19928;-83
2023/04/08 03:05:44;;;;;;;;;;;5.30;81.50;;;4.10;75.59;96353.22;5012960;28;19921;-83
2023/04/08 03:08:13;;;;;;;;;;;5.30;81.50;;;4.10;75.60;96355.94;5013187;28;19921;-83
2023/04/08 03:10:41;;;;;;;;;;;5.30;81.50;;;4.10;75.68;96359.50;5013165;28;20235;-83
2023/04/08 03:13:09;;;;;;;;;;;5.30;81.50;;;4.09;75.58;96354.28;4996719;28;20220;-83
2023/04/08 03:15:37;;;;;;;;;;;5.30;81.40;;;4.09;75.58;96363.25;5013066;28;20229;-83
2023/04/08 03:18:05;;;;;;;;;;;5.30;81.40;;;4.10;75.65;96359.50;4996488;28;19937;-83
2023/04/08 03:20:33;;;;;;;;;;;5.30;81.40;;;4.09;75.19;96359.69;5012815;28;20235;-83
2023/04/08 03:23:01;;;;;;;;;;;5.30;82.20;;;4.09;75.30;96359.69;4996772;28;19943;-83
2023/04/08 03:25:30;;;;;;;;;;;5.30;81.40;;;4.08;74.94;96358.88;5014963;28;19921;-83
2023/04/08 03:27:58;;;;;;;;;;;5.30;81.40;;;4.08;75.10;96364.31;5016136;28;20141;-83
2023/04/08 03:30:26;;;;;;;;;;;5.30;81.50;;;4.08;75.57;96372.44;5033728;28;19921;-83
2023/04/08 03:32:54;;;;;;;;;;;5.30;81.50;;;4.09;75.50;96373.25;5016121;28;19928;-83
2023/04/08 03:35:22;;;;;;;;;;;5.30;81.40;;;4.08;75.57;96377.00;5032433;28;19921;-84
2023/04/08 03:37:50;;;;;;;;;;;5.30;81.50;;;4.06;75.24;96374.53;4999787;28;19921;-83
2023/04/08 03:40:18;;;;;;;;;;;5.30;81.50;;;4.07;75.46;96378.91;4999681;28;19929;-83
2023/04/08 03:42:48;;;;;;;;;;;5.30;81.40;;;4.08;75.69;96382.41;5016173;28;19943;-82
2023/04/08 03:45:16;;;;;;;;;;;5.30;81.40;;;4.07;75.14;96391.59;4999479;28;19922;-83
2023/04/08 03:47:43;;;;;;;;;;;5.30;81.50;;;4.06;75.56;96396.22;4999527;28;20123;-83
2023/04/08 03:50:12;;;;;;;;;;;5.30;81.40;;;4.07;75.32;96399.72;5015777;28;19932;-83
2023/04/08 03:52:40;;;;;;;;;;;5.30;81.40;;;4.06;75.29;96398.91;5015700;28;19922;-83
2023/04/08 03:55:09;;;;;;;;;;;5.30;81.40;;;4.06;75.31;96392.69;5015171;28;19928;-83
2023/04/08 03:57:37;;;;;;;;;;;5.30;81.50;;;4.06;75.30;96395.41;4999619;28;19927;-83
2023/04/08 04:00:08;;;;;;;;;;;5.30;81.50;;;4.06;75.34;96404.34;4999530;28;19927;-83
2023/04/08 04:02:40;;;;;;;;;;;5.30;81.50;;;4.07;75.64;96402.44;5015672;28;19921;-83
2023/04/08 04:05:08;;;;;;;;;;;5.30;81.40;;;4.07;75.51;96406.00;5032032;28;20388;-83
2023/04/08 04:07:36;;;;;;;;;;;5.30;81.50;;;4.05;75.60;96402.69;4999526;28;19927;-82
2023/04/08 04:10:05;;;;;;;;;;;5.30;81.50;;;4.06;75.34;96407.03;5015874;28;19921;-83
2023/04/08 04:12:33;;;;;;;;;;;5.30;81.40;;;4.06;75.19;96417.88;5016573;28;19921;-83
2023/04/08 04:15:01;;;;;;;;;;;5.30;81.40;;;4.06;75.50;96414.34;4999311;28;19921;-83
2023/04/08 04:17:30;;;;;;;;;;;5.30;81.40;;;4.07;75.28;96426.81;5033155;28;19921;-83
2023/04/08 04:19:58;;;;;;;;;;;5.30;81.50;;;4.05;75.37;96421.63;5015361;28;19921;-83
2023/04/08 04:22:26;;;;;;;;;;;5.30;81.50;;;4.05;75.43;96421.63;5026828;28;19983;-83
2023/04/08 04:24:54;;;;;;;;;;;5.30;81.50;;;4.06;74.99;96419.78;4998130;28;19979;-83
2023/04/08 04:27:22;;;;;;;;;;;5.30;81.50;;;4.05;75.07;96431.66;4998657;28;19932;-83
2023/04/08 04:29:50;;;;;;;;;;;5.30;81.40;;;4.06;74.99;96430.59;5015323;28;19921;-83
2023/04/08 04:32:18;;;;;;;;;;;5.30;81.40;;;4.06;75.08;96430.59;5015058;28;19921;-83
2023/04/08 04:34:47;;;;;;;;;;;5.30;81.40;;;4.06;75.17;96433.31;5014918;28;19928;-83
2023/04/08 04:37:16;;;;;;;;;;;5.30;81.40;;;4.05;75.26;96435.19;5015223;28;19921;-83
2023/04/08 04:39:44;;;;;;;;;;;5.30;81.40;;;4.06;75.38;96446.88;4998885;28;19927;-83
2023/04/08 04:42:12;;;;;;;;;;;5.30;81.40;;;4.06;75.44;96452.28;5015340;28;19921;-83
2023/04/08 04:44:40;;;;;;;;;;;5.30;81.40;;;4.06;75.34;96452.28;4998761;28;19921;-83
2023/04/08 04:47:07;;;;;;;;;;;5.30;81.40;;;4.05;75.56;96448.72;5014829;28;19921;-83
2023/04/08 04:49:35;;;;;;;;;;;5.30;81.40;;;4.05;75.20;96446.03;4998763;28;19927;-83
2023/04/08 04:52:05;;;;;;;;;;;5.30;81.30;;;4.06;75.20;96446.88;4998556;28;19921;-83
2023/04/08 04:54:33;;;;;;;;;;;5.30;81.40;;;4.05;75.46;96451.44;4998609;28;20332;-83
2023/04/08 04:57:01;;;;;;;;;;;5.30;81.40;;;4.05;75.14;96456.84;4998525;28;20209;-83
2023/04/08 04:59:29;;;;;;;;;;;5.30;81.40;;;4.05;75.31;96458.75;5032559;28;19921;-83
2023/04/08 05:01:57;;;;;;;;;;;5.30;81.40;;;4.05;75.72;96450.63;5014651;28;19921;-83
2023/04/08 05:04:25;;;;;;;;;;;5.30;81.40;;;4.04;75.50;96468.75;5014620;28;20121;-83
2023/04/08 05:06:53;;;;;;;;;;;5.30;81.40;;;4.05;75.43;96466.88;5032276;28;19921;-83
2023/04/08 05:09:22;;;;;;;;;;;5.30;81.50;;;4.05;75.22;96466.88;5014663;28;20246;-83
2023/04/08 05:11:50;;;;;;;;;;;5.30;81.40;;;4.04;75.51;96462.50;5047734;28;19921;-83
2023/04/08 05:14:18;;;;;;;;;;;5.30;81.40;;;4.04;75.54;96467.94;5014560;28;19936;-83
2023/04/08 05:16:46;;;;;;;;;;;5.30;81.40;;;4.04;75.53;96465.22;5014635;28;19927;-83
2023/04/08 05:19:14;;;;;;;;;;;5.30;81.40;;;4.04;75.54;96476.06;5014329;28;19921;-83
2023/04/08 05:21:42;;;;;;;;;;;5.30;81.40;;;4.04;75.17;96479.56;5014433;28;20090;-83
2023/04/08 05:24:10;;;;;;;;;;;5.30;81.40;;;4.05;75.57;96477.72;5031691;28;19921;-83
2023/04/08 05:26:40;;;;;;;;;;;5.30;81.40;;;4.05;75.71;96488.53;5014690;28;19928;-83
2023/04/08 05:29:08;;;;;;;;;;;5.30;81.40;;;4.05;75.56;96488.53;5014430;28;19943;-83
2023/04/08 05:31:35;;;;;;;;;;;5.30;81.40;;;4.04;75.04;96486.88;5014334;28;19921;-83
2023/04/08 05:34:03;;;;;;;;;;;5.30;81.40;;;4.04;75.42;96485.00;5014239;28;19927;-83
2023/04/08 05:36:31;;;;;;;;;;;5.30;81.30;;;4.04;75.58;96492.31;5030083;28;20205;-83
2023/04/08 05:38:59;;;;;;;;;;;5.30;81.40;;;4.04;75.24;96486.88;4994272;28;19921;-83
2023/04/08 05:41:27;;;;;;;;;;;5.30;81.40;;;4.04;75.57;96482.28;4994414;28;19928;-83
2023/04/08 05:43:57;;;;;;;;;;;5.30;81.30;;;4.04;75.24;96485.00;5010753;28;19928;-83
2023/04/08 05:46:25;;;;;;;;;;;5.30;81.30;;;4.05;75.60;96493.97;5026348;28;19921;-83
2023/04/08 05:48:53;;;;;;;;;;;5.30;81.40;;;4.06;75.48;96495.63;4993840;28;19948;-83
2023/04/08 05:51:20;;;;;;;;;;;5.30;81.30;;;4.05;75.39;96493.97;5010409;28;20265;-82
2023/04/08 05:53:48;;;;;;;;;;;5.30;81.30;;;4.04;75.25;96490.41;5027002;28;19951;-83
2023/04/08 05:56:16;;;;;;;;;;;5.30;81.30;;;4.05;75.28;96491.25;5010088;28;19921;-83
2023/04/08 05:58:45;;;;;;;;;;;5.30;81.20;;;4.05;75.49;96488.53;4994038;28;19928;-83
2023/04/08 06:01:14;;;;;;;;;;;5.30;81.20;;;4.05;75.41;96489.38;5010129;28;19921;-83
2023/04/08 06:03:42;;;;;;;;;;;5.30;81.20;;;4.06;75.38;96491.03;4994101;28;19921;-83
2023/04/08 06:06:11;;;;;;;;;;;5.30;81.20;;;4.07;75.42;96494.53;4993639;28;19928;-83
2023/04/08 06:08:39;;;;;;;;;;;5.30;81.20;;;4.07;75.08;96499.97;5010238;28;19936;-83
2023/04/08 06:11:07;;;;;;;;;;;5.30;81.20;;;4.07;74.91;96499.97;5010116;28;19925;-83
2023/04/08 06:13:36;;;;;;;;;;;5.30;81.20;;;4.07;75.09;96492.69;5010083;28;19921;-84
2023/04/08 06:16:10;;;;;;;;;;;5.30;81.20;;;4.08;75.17;96498.91;4993531;28;19921;-83
2023/04/08 06:18:42;;;;;;;;;;;5.30;81.10;;;4.09;75.13;96500.56;4994116;28;20285;-83
2023/04/08 06:21:10;;;;;;;;;;;5.30;81.10;;;4.09;74.94;96497.88;5009743;28;20148;-83
2023/04/08 06:23:38;;;;;;;;;;;5.30;81.10;;;4.08;75.09;96497.06;4993795;28;19921;-83
2023/04/08 06:26:06;;;;;;;;;;;5.30;81.00;;;4.10;74.99;96502.25;5027359;28;19921;-83
2023/04/08 06:28:34;;;;;;;;;;;5.30;80.90;;;4.09;75.19;96495.16;5009850;28;19936;-83
2023/04/08 06:31:02;;;;;;;;;;;5.30;80.90;;;4.09;74.87;96496.00;5042572;28;20012;-83
2023/04/08 06:33:30;;;;;;;;;;;5.30;81.00;;;4.10;75.05;96508.50;5010196;28;20209;-83
2023/04/08 06:36:06;;;;;;;;;;;5.30;80.90;;;4.12;75.04;96505.56;5009698;28;19921;-82
2023/04/08 06:38:34;;;;;;;;;;;5.30;80.90;;;4.11;75.21;96499.31;5009807;28;19921;-83
2023/04/08 06:41:03;;;;;;;;;;;5.40;81.00;;;4.11;75.06;96493.91;4990031;28;19944;-82
2023/04/08 06:43:31;;;;;;;;;;;5.40;80.90;;;4.13;74.92;96499.91;5006537;28;19928;-83
2023/04/08 06:45:59;;;;;;;;;;;5.40;80.90;;;4.13;74.96;96499.09;5002041;28;19922;-83
2023/04/08 06:48:29;;;;;;;;;;;5.40;80.80;;;4.15;74.91;96494.28;5009748;28;19927;-83
2023/04/08 06:50:57;;;;;;;;;;;5.40;80.80;;;4.15;75.03;96494.28;5009489;28;20231;-83
2023/04/08 06:53:28;;;;;;;;;;;5.40;80.80;;;4.16;74.88;96495.94;5009607;28;19941;-83
2023/04/08 06:55:56;;;;;;;;;;;5.40;80.80;;;4.19;74.83;96494.66;4997085;28;19943;-84
2023/04/08 06:58:23;;;;;;;;;;;5.40;80.70;;;4.21;74.82;96492.56;4997710;28;19928;-84
2023/04/08 07:00:51;;;;;;;;;;;5.40;80.60;;;4.22;74.44;96494.22;5016727;28;19927;-84
2023/04/08 07:03:20;;;;;;;;;;;5.40;80.60;;;4.23;74.46;96493.19;5016497;28;19921;-83
2023/04/08 07:05:48;;;;;;;;;;;5.40;80.50;;;4.25;74.61;96491.91;5034130;28;19921;-84
2023/04/08 07:08:16;;;;;;;;;;;5.50;80.60;;;4.28;74.63;96493.31;5016441;28;19922;-84
2023/04/08 07:10:45;;;;;;;;;;;5.50;80.50;;;4.30;74.86;96491.22;5000084;28;19921;-84
2023/04/08 07:13:13;;;;;;;;;;;5.50;80.40;;;4.32;74.44;96489.13;5016459;28;20192;-84
2023/04/08 07:15:41;;;;;;;;;;;5.60;80.40;;;4.36;74.66;96508.47;5016319;28;19928;-84
2023/04/08 07:18:09;;;;;;;;;;;5.60;80.40;;;4.39;74.24;96508.84;4999919;28;19921;-84
2023/04/08 07:20:37;;;;;;;;;;;5.60;80.30;;;4.42;74.31;96504.88;5016421;28;19931;-84
2023/04/08 07:23:05;;;;;;;;;;;5.60;80.10;;;4.47;74.08;96501.50;5016229;28;19929;-84
2023/04/08 07:25:33;;;;;;;;;;;5.70;80.20;;;4.51;74.24;96508.94;4999922;28;19921;-84
2023/04/08 07:28:02;;;;;;;;;;;5.70;80.10;;;4.58;74.28;96500.75;5016375;28;19921;-85
2023/04/08 07:30:30;;;;;;;;;;;5.80;80.00;;;4.65;73.91;96503.38;4999933;28;19928;-84
2023/04/08 07:32:58;;;;;;;;;;;5.80;79.90;;;4.72;73.69;96509.56;5049042;28;19921;-84
2023/04/08 07:35:26;;;;;;;;;;;5.90;79.80;;;4.80;73.46;96495.72;5016101;28;20120;-84
2023/04/08 07:37:54;;;;;;;;;;;6.00;79.70;;;4.91;73.54;96499.53;5016003;28;19920;-84
2023/04/08 07:40:22;;;;;;;;;;;6.10;79.70;;;-151.14;100.00;62537.16;5015905;28;20208;-84
2023/04/08 07:42:50;;;;;;;;;;;6.10;79.30;;;-151.14;100.00;62537.16;4980272;28;19922;-84
2023/04/08 07:45:20;;;;;;;;;;;6.20;79.00;;;-151.14;100.00;62537.16;4996405;28;19945;-84
2023/04/08 07:47:48;;;;;;;;;;;6.20;78.90;;;5.16;nan;96499.44;5029113;28;19985;-85
2023/04/08 07:50:16;;;;;;;;;;;6.30;78.80;;;5.19;nan;96499.00;5013659;28;19922;-83
2023/04/08 07:52:44;;;;;;;;;;;6.40;78.60;;;5.20;nan;96503.34;5013642;28;20319;-84
2023/04/08 07:55:12;;;;;;;;;;;6.40;78.40;;;5.27;nan;96505.16;5015762;28;20144;-84
2023/04/08 07:57:40;;;;;;;;;;;6.40;78.20;;;5.32;nan;96513.44;5033167;28;19928;-84
2023/04/08 08:00:09;;;;;;;;;;;6.50;78.20;;;5.36;nan;96520.03;5015998;28;19922;-84
2023/04/08 08:02:44;;;;;;;;;;;6.50;78.00;;;5.40;nan;96515.00;5015595;28;20209;-84
2023/04/08 08:05:12;;;;;;;;;;;6.50;77.90;;;5.35;nan;96511.09;4999170;28;19929;-84
2023/04/08 08:07:40;;;;;;;;;;;6.50;77.80;;;5.31;nan;96515.31;4999167;28;19921;-83
2023/04/08 08:10:09;;;;;;;;;;;6.50;77.90;;;5.27;nan;96521.44;4986250;28;19995;-84
2023/04/08 08:12:37;;;;;;;;;;;6.50;78.00;;;5.22;nan;96520.25;4979051;28;19921;-84
2023/04/08 08:15:06;;;;;;;;;;;6.40;78.10;;;5.18;nan;96519.03;4994890;28;19921;-84
2023/04/08 08:17:34;;;;;;;;;;;6.40;78.10;;;5.16;nan;96513.00;4995361;28;19922;-84
2023/04/08 08:20:04;;;;;;;;;;;6.40;78.30;;;5.13;nan;96515.34;4995034;28;20102;-84
2023/04/08 08:22:32;;;;;;;;;;;6.40;78.40;;;5.09;nan;96509.56;5027161;28;19936;-84
2023/04/08 08:25:00;;;;;;;;;;;6.30;78.40;;;5.07;nan;96514.38;5012293;28;19922;-84
2023/04/08 08:27:28;;;;;;;;;;;6.30;78.50;;;5.03;nan;96516.72;4995218;28;19929;-84
2023/04/08 08:29:56;;;;;;;;;;;6.30;78.70;;;4.98;nan;96510.31;4978654;28;19944;-84
2023/04/08 08:32:24;;;;;;;;;;;6.20;78.70;;;5.00;nan;96513.63;5004367;28;20124;-84
2023/04/08 08:34:52;;;;;;;;;;;6.20;78.70;;;5.00;nan;96517.19;5030862;28;20116;-83
2023/04/08 08:37:21;;;;;;;;;;;6.20;78.90;;;5.04;nan;96517.53;5031961;28;19922;-83
2023/04/08 08:39:49;;;;;;;;;;;6.20;78.90;;;5.04;nan;96518.34;4997962;28;19933;-84
2023/04/08 08:42:21;;;;;;;;;;;6.20;78.90;;;5.07;nan;96517.91;5014522;28;20214;-84
2023/04/08 08:44:49;;;;;;;;;;;6.20;78.90;;;5.12;nan;96522.66;4997664;28;19925;-85
2023/04/08 08:47:17;;;;;;;;;;;6.30;79.00;;;5.17;nan;96511.94;4997906;28;19927;-84
2023/04/08 08:49:45;;;;;;;;;;;6.30;78.90;;;5.23;nan;96516.44;5014316;28;19939;-84
2023/04/08 08:52:16;;;;;;;;;;;6.40;78.80;;;5.27;nan;96510.56;5031660;28;19921;-84
2023/04/08 08:54:45;;;;;;;;;;;6.40;78.60;;;5.34;nan;96506.72;4997914;28;19921;-85
2023/04/08 08:57:19;;;;;;;;;;;6.50;78.60;;;5.38;nan;96512.50;5031432;28;19927;-85
2023/04/08 08:59:47;;;;;;;;;;;6.50;78.60;;;5.39;nan;96519.59;5031759;28;19921;-84
2023/04/08 09:02:24;;;;;;;;;;;6.60;78.30;;;5.41;nan;96522.91;5014030;28;19921;-84
2023/04/08 09:04:57;;;;;;;;;;;6.60;78.30;;;5.45;nan;96518.69;5013853;28;19936;-84
2023/04/08 09:07:25;;;;;;;;;;;6.60;78.20;;;5.47;nan;96516.56;4997369;28;20123;-84
2023/04/08 09:09:55;;;;;;;;;;;6.60;78.20;;;5.50;nan;96516.09;5013779;28;19922;-84
2023/04/08 09:12:23;;;;;;;;;;;6.70;78.20;;;5.51;nan;96515.03;5014170;28;19928;-84
2023/04/08 09:14:51;;;;;;;;;;;6.70;78.20;;;5.51;nan;96515.03;4997370;28;20212;-84
2023/04/08 09:17:32;;;;;;;;;;;6.70;78.10;;;5.51;nan;96512.31;5014149;28;19927;-84
2023/04/08 09:20:10;;;;;;;;;;;6.70;78.00;;;5.50;nan;96507.94;5013728;28;19921;-84
2023/04/08 09:22:58;;;;;;;;;;;6.70;77.90;;;5.50;nan;96518.00;4996281;28;19935;-84
2023/04/08 09:25:28;;;;;;;;;;;6.70;77.90;;;5.51;nan;96523.19;4996963;28;19947;-84
2023/04/08 09:27:56;;;;;;;;;;;6.70;78.00;;;5.52;nan;96513.16;4997316;28;19921;-84
2023/04/08 09:30:24;;;;;;;;;;;6.70;78.10;;;5.56;nan;96519.78;4997039;28;19921;-84
2023/04/08 09:32:53;;;;;;;;;;;6.80;78.00;;;5.58;nan;96516.84;5031152;28;19921;-84
2023/04/08 09:35:21;;;;;;;;;;;6.80;78.00;;;5.59;nan;96523.94;4997096;28;19984;-84
2023/04/08 09:37:49;;;;;;;;;;;6.80;77.80;;;5.59;nan;96518.50;4997302;28;19921;-84
2023/04/08 09:40:17;;;;;;;;;;;6.80;77.90;;;5.60;nan;96520.16;4996815;28;19927;-84
2023/04/08 09:42:49;;;;;;;;;;;6.80;78.60;;;5.60;nan;96523.69;4996905;28;19951;-84
2023/04/08 09:45:17;;;;;;;;;;;6.80;77.90;;;5.63;nan;96519.69;5013344;28;19928;-84
2023/04/08 09:47:56;;;;;;;;;;;6.80;77.90;;;5.62;nan;96518.03;5013611;28;20240;-84
2023/04/08 09:50:27;;;;;;;;;;;6.80;77.70;;;5.61;nan;96521.81;4996868;28;20318;-84
2023/04/08 09:52:59;;;;;;;;;;;6.80;77.70;;;5.61;nan;96524.53;5029569;28;20217;-84
2023/04/08 09:55:28;;;;;;;;;;;6.80;77.70;;;5.62;nan;96528.88;5029498;28;19929;-85
2023/04/08 09:57:59;;;;;;;;;;;6.80;77.80;;;5.62;nan;96528.88;5013274;28;20246;-84
2023/04/08 10:00:30;;;;;;;;;;;6.80;77.80;;;5.61;nan;96532.69;5013088;28;20243;-84
2023/04/08 10:03:01;;;;;;;;;;;6.80;77.80;;;5.59;nan;96532.91;5012901;28;19928;-84
2023/04/08 10:05:30;;;;;;;;;;;6.80;77.80;;;5.57;nan;96543.16;5011855;28;20231;-85
2023/04/08 10:07:58;;;;;;;;;;;6.80;77.90;;;5.56;nan;96546.13;4987235;28;19921;-84
2023/04/08 10:10:26;;;;;;;;;;;6.80;78.00;;;5.53;nan;96548.22;4996790;28;19921;-84
2023/04/08 10:12:54;;;;;;;;;;;6.70;78.00;;;5.49;nan;96546.22;4996430;28;19921;-84
2023/04/08 10:15:27;;;;;;;;;;;6.70;78.10;;;5.47;nan;96537.47;4996473;28;19929;-84
2023/04/08 10:17:55;;;;;;;;;;;6.70;78.30;;;5.47;nan;96549.16;5029295;28;19922;-85
2023/04/08 10:20:42;;;;;;;;;;;6.70;78.90;;;5.48;nan;96545.38;4996512;28;19922;-85
2023/04/08 10:23:12;;;;;;;;;;;6.70;78.80;;;5.44;nan;96549.63;5012720;28;20213;-84
2023/04/08 10:25:40;;;;;;;;;;;6.70;78.60;;;5.43;nan;96544.38;5030549;28;20101;-85
2023/04/08 10:28:24;;;;;;;;;;;6.60;78.60;;;5.40;nan;96547.59;5013068;28;19921;-84
2023/04/08 10:30:54;;;;;;;;;;;6.60;78.80;;;5.35;nan;96549.09;4999029;28;19922;-85
2023/04/08 10:33:24;;;;;;;;;;;6.60;79.00;;;5.32;nan;96543.31;5013641;28;19927;-85
2023/04/08 10:35:53;;;;;;;;;;;6.60;79.10;;;5.29;nan;96547.31;5016140;28;19943;-85
2023/04/08 10:38:21;;;;;;;;;;;6.60;79.10;;;5.27;nan;96551.28;5000013;28;19927;-85
2023/04/08 10:40:50;;;;;;;;;;;6.50;79.20;;;5.23;nan;96540.88;5000079;28;19928;-84
2023/04/08 10:43:18;;;;;;;;;;;6.50;79.30;;;5.23;nan;96545.50;5016246;28;19939;-85
2023/04/08 10:45:49;;;;;;;;;;;6.40;79.30;;;5.20;nan;96544.06;5015868;28;19921;-85
2023/04/08 10:48:21;;;;;;;;;;;6.40;79.40;;;5.19;nan;96539.69;5016159;28;19927;-85
2023/04/08 10:50:53;;;;;;;;;;;6.40;79.40;;;5.15;nan;96524.09;5031823;28;19921;-84
2023/04/08 10:53:27;;;;;;;;;;;6.40;79.50;;;5.16;nan;96532.00;5015628;28;19929;-85
2023/04/08 10:55:55;;;;;;;;;;;6.40;79.50;;;5.16;nan;96531.19;5014539;28;19930;-85
2023/04/08 10:58:23;;;;;;;;;;;6.40;79.60;;;5.15;nan;96534.97;5048965;28;19940;-84
2023/04/08 11:00:51;;;;;;;;;;;6.40;79.60;;;5.15;nan;96541.19;4999391;28;19921;-84
2023/04/08 11:03:21;;;;;;;;;;;6.40;79.70;;;5.15;nan;96529.53;5015634;28;19921;-84
2023/04/08 11:05:49;;;;;;;;;;;6.40;79.70;;;5.14;nan;96534.09;5015402;28;19931;-85
2023/04/08 11:08:19;;;;;;;;;;;6.40;79.70;;;5.15;nan;96535.78;5015767;28;19927;-85
2023/04/08 11:10:47;;;;;;;;;;;6.40;79.70;;;5.13;nan;96537.88;5015680;28;19929;-84
2023/04/08 11:13:15;;;;;;;;;;;6.40;79.60;;;5.13;nan;96532.44;4999016;28;19921;-84
2023/04/08 11:15:43;;;;;;;;;;;6.40;79.70;;;5.12;nan;96538.94;5020893;28;19921;-85
2023/04/08 11:18:11;;;;;;;;;;;6.40;79.70;;;5.14;nan;96541.44;4995780;28;19922;-84
2023/04/08 11:20:41;;;;;;;;;;;6.40;79.70;;;5.13;nan;96532.44;4995587;28;20472;-85
2023/04/08 11:23:13;;;;;;;;;;;6.40;79.70;;;5.14;nan;96534.09;4995615;28;19923;-85
2023/04/08 11:25:41;;;;;;;;;;;6.40;79.70;;;5.15;nan;96540.38;4979976;28;19921;-85
2023/04/08 11:28:09;;;;;;;;;;;6.40;79.60;;;5.15;nan;96529.53;4980179;28;19922;-84
2023/04/08 11:30:38;;;;;;;;;;;6.40;79.60;;;5.15;nan;96527.63;4996588;28;19928;-85
2023/04/08 11:33:06;;;;;;;;;;;6.40;79.60;;;5.14;nan;96528.69;5013807;28;20124;-85
2023/04/08 11:35:34;;;;;;;;;;;6.40;79.60;;;5.14;nan;96523.25;4980122;28;19921;-85
2023/04/08 11:38:06;;;;;;;;;;;6.40;79.40;;;5.15;nan;96514.06;4996366;28;20243;-85
2023/04/08 11:40:34;;;;;;;;;;;6.40;79.60;;;5.11;nan;96510.13;4980192;28;20213;-85
2023/04/08 11:43:09;;;;;;;;;;;6.40;79.60;;;5.14;nan;96517.81;4980351;28;19922;-85
2023/04/08 11:45:38;;;;;;;;;;;6.40;79.60;;;5.14;nan;96517.00;5027758;28;19945;-85
2023/04/08 11:48:10;;;;;;;;;;;6.40;79.60;;;5.13;nan;96516.16;4980350;28;20117;-85